createdAt,value
2019-01-21T00:00:53.468Z,101049.36
2019-01-21T00:03:21.146Z,101051.46
2019-01-21T00:05:48.646Z,101053.65
2019-01-21T00:08:16.110Z,101049.84
2019-01-21T00:10:43.521Z,101043.02
2019-01-21T00:13:10.980Z,101040.87
2019-01-21T00:15:38.460Z,101035.77
2019-01-21T00:18:06.070Z,101034.47
2019-01-21T00:20:33.552Z,101036.15
2019-01-21T00:23:02.450Z,101036.58
2019-01-21T00:25:30.130Z,101039.55
2019-01-21T00:27:57.551Z,101033.21
2019-01-21T00:30:25.035Z,101037.88
2019-01-21T00:32:52.461Z,101035.31
2019-01-21T00:35:19.943Z,101031.93
2019-01-21T00:37:47.341Z,101034.48
2019-01-21T00:40:15.010Z,101033.66
2019-01-21T00:42:42.431Z,101036.63
2019-01-21T00:45:10.005Z,101031.48
2019-01-21T00:47:37.426Z,101022.53
2019-01-21T00:50:05.440Z,101022.52
2019-01-21T00:52:32.848Z,101012.69
2019-01-21T00:55:00.277Z,101017.80
2019-01-21T00:57:27.671Z,101023.00
2019-01-21T00:59:55.101Z,101023.00
2019-01-21T01:02:22.647Z,101012.34
2019-01-21T01:04:50.142Z,101015.33
2019-01-21T01:07:17.636Z,101027.66
2019-01-21T01:09:45.100Z,101026.81
2019-01-21T01:12:12.500Z,101043.87
2019-01-21T01:14:40.000Z,101043.43
2019-01-21T01:17:07.406Z,101051.11
2019-01-21T01:19:34.826Z,101051.53
2019-01-21T01:22:02.230Z,101053.23
2019-01-21T01:24:29.631Z,101060.48
2019-01-21T01:26:57.375Z,101057.94
2019-01-21T01:29:28.071Z,101061.77
2019-01-21T01:31:55.526Z,101054.09
2019-01-21T01:34:22.966Z,101052.84
2019-01-21T01:36:50.457Z,101060.05
2019-01-21T01:39:17.867Z,101058.38
2019-01-21T01:41:45.721Z,101054.11
2019-01-21T01:44:13.127Z,101058.77
2019-01-21T01:46:41.081Z,101056.64
2019-01-21T01:49:11.006Z,101046.78
2019-01-21T01:51:38.451Z,101049.36
2019-01-21T01:54:05.859Z,101056.17
2019-01-21T01:56:33.416Z,101049.38
2019-01-21T01:59:00.830Z,101046.69
2019-01-21T02:01:28.486Z,101046.69
2019-01-21T02:03:55.902Z,101051.77
2019-01-21T02:06:23.691Z,101051.77
2019-01-21T02:08:51.107Z,101052.71
2019-01-21T02:11:18.552Z,101042.08
2019-01-21T02:13:45.960Z,101042.08
2019-01-21T02:16:13.431Z,101052.73
2019-01-21T02:18:40.841Z,101049.38
2019-01-21T02:21:08.581Z,101054.91
2019-01-21T02:23:37.250Z,101054.86
2019-01-21T02:26:09.096Z,101054.86
2019-01-21T02:28:49.281Z,101054.78
2019-01-21T02:31:54.532Z,101053.92
2019-01-21T02:34:33.651Z,101029.67
2019-01-21T02:37:43.658Z,101052.69
2019-01-21T02:40:46.036Z,101062.97
2019-01-21T02:43:56.601Z,101064.27
2019-01-21T02:46:59.066Z,101065.55
2019-01-21T02:50:06.010Z,101065.55
2019-01-21T02:53:39.587Z,101054.89
2019-01-21T02:56:50.761Z,101051.73
2019-01-21T03:00:01.358Z,101052.22
2019-01-21T03:03:10.317Z,101048.38
2019-01-21T03:06:01.753Z,101048.38
2019-01-21T03:09:00.291Z,101042.44
2019-01-21T03:12:18.291Z,101047.14
2019-01-21T03:15:24.286Z,101038.18
2019-01-21T03:18:32.577Z,101041.05
2019-01-21T03:21:23.792Z,101038.95
2019-01-21T03:24:19.447Z,101040.25
2019-01-21T03:27:36.196Z,101033.02
2019-01-21T03:30:51.689Z,101032.09
2019-01-21T03:33:58.578Z,101032.09
2019-01-21T03:36:58.629Z,101036.75
2019-01-21T03:39:53.022Z,101036.75
2019-01-21T03:42:34.172Z,101035.45
2019-01-21T03:45:58.565Z,101033.39
2019-01-21T03:48:32.043Z,101038.08
2019-01-21T03:51:29.689Z,101038.08
2019-01-21T03:54:46.077Z,101045.41
2019-01-21T03:57:50.895Z,101045.39
2019-01-21T04:00:33.648Z,101045.39
2019-01-21T04:03:36.831Z,101036.84
2019-01-21T04:06:15.757Z,101043.56
2019-01-21T04:09:20.607Z,101041.97
2019-01-21T04:12:28.862Z,101041.97
2019-01-21T04:15:55.876Z,101037.22
2019-01-21T04:19:01.337Z,101037.22
2019-01-21T04:22:15.416Z,101051.31
2019-01-21T04:25:13.080Z,101052.62
2019-01-21T04:28:13.321Z,101036.87
2019-01-21T04:30:55.643Z,101033.00
2019-01-21T04:34:00.648Z,101033.00
2019-01-21T04:37:02.384Z,101033.84
2019-01-21T04:40:16.852Z,101036.78
2019-01-21T04:43:21.866Z,101026.56
2019-01-21T04:46:14.107Z,101026.56
2019-01-21T04:49:20.380Z,101031.25
2019-01-21T04:52:21.633Z,101029.06
2019-01-21T04:55:30.692Z,101029.06
2019-01-21T04:58:26.380Z,101037.15
2019-01-21T05:01:34.297Z,101031.59
2019-01-21T05:04:31.124Z,101037.08
2019-01-21T05:07:54.413Z,101042.88
2019-01-21T05:10:47.863Z,101031.58
2019-01-21T05:14:02.576Z,101029.83
2019-01-21T05:17:13.967Z,101031.59
2019-01-21T05:20:06.276Z,101037.10
2019-01-21T05:23:13.291Z,101031.03
2019-01-21T05:26:12.537Z,101031.03
2019-01-21T05:29:36.928Z,101025.05
2019-01-21T05:32:41.620Z,101013.26
2019-01-21T05:35:47.452Z,101013.26
2019-01-21T05:38:46.806Z,101009.09
2019-01-21T05:42:05.444Z,101011.39
2019-01-21T05:45:11.867Z,100999.95
2019-01-21T05:48:26.731Z,100991.88
2019-01-21T05:51:37.311Z,100991.88
2019-01-21T05:54:42.632Z,100983.81
2019-01-21T05:58:09.447Z,100982.94
2019-01-21T06:01:26.639Z,100995.30
2019-01-21T06:04:49.306Z,101000.42
2019-01-21T06:08:01.124Z,100997.85
2019-01-21T06:10:35.078Z,101011.06
2019-01-21T06:13:39.914Z,101012.80
2019-01-21T06:16:35.222Z,101017.48
2019-01-21T06:19:28.791Z,101015.75
2019-01-21T06:22:23.045Z,101006.39
2019-01-21T06:25:10.063Z,101011.49
2019-01-21T06:28:19.341Z,101013.22
2019-01-21T06:31:29.557Z,101017.05
2019-01-21T06:34:39.153Z,101021.30
2019-01-21T06:37:28.796Z,101011.51
2019-01-21T06:40:36.661Z,101015.33
2019-01-21T06:43:54.641Z,101015.33
2019-01-21T06:46:50.776Z,101013.63
2019-01-21T06:49:59.941Z,101014.05
2019-01-21T06:53:07.551Z,101011.49
2019-01-21T06:56:19.576Z,101014.48
2019-01-21T06:59:37.896Z,101016.59
2019-01-21T07:02:16.031Z,101021.73
2019-01-21T07:05:23.486Z,101021.28
2019-01-21T07:08:16.637Z,101023.01
2019-01-21T07:11:31.897Z,101018.31
2019-01-21T07:14:23.711Z,101023.42
2019-01-21T07:17:10.957Z,101035.80
2019-01-21T07:20:25.500Z,101035.80
2019-01-21T07:23:40.641Z,101035.78
2019-01-21T07:26:34.141Z,101043.45
2019-01-21T07:29:32.557Z,101046.87
2019-01-21T07:32:38.921Z,101037.92
2019-01-21T07:35:47.206Z,101043.03
2019-01-21T07:38:42.636Z,101044.29
2019-01-21T07:41:23.186Z,101040.44
2019-01-21T07:44:10.394Z,101039.55
2019-01-21T07:47:01.891Z,101028.48
2019-01-21T07:50:19.291Z,101028.48
2019-01-21T07:53:23.106Z,101019.31
2019-01-21T07:56:27.979Z,101014.88
2019-01-21T07:59:32.863Z,101014.98
2019-01-21T08:03:16.820Z,101016.06
2019-01-21T08:05:56.856Z,101014.88
2019-01-21T08:09:00.164Z,101005.45
2019-01-21T08:12:03.912Z,101009.58
2019-01-21T08:15:02.233Z,101023.53
2019-01-21T08:17:38.806Z,101036.58
2019-01-21T08:20:43.548Z,101058.34
2019-01-21T08:23:58.762Z,101061.22
2019-01-21T08:27:13.736Z,101067.11
2019-01-21T08:30:25.946Z,101076.75
2019-01-21T08:33:22.438Z,101082.30
2019-01-21T08:36:42.952Z,101079.28
2019-01-21T08:39:39.691Z,101088.98
2019-01-21T08:42:51.090Z,101104.80
2019-01-21T08:45:43.161Z,101106.16
2019-01-21T08:48:44.043Z,101099.52
2019-01-21T08:51:58.978Z,101101.42
2019-01-21T08:54:42.740Z,101091.22
2019-01-21T08:58:13.364Z,101086.45
2019-01-21T09:01:18.511Z,101087.63
2019-01-21T09:04:28.060Z,101079.02
2019-01-21T09:07:26.841Z,101076.08
2019-01-21T09:10:14.911Z,101064.83
2019-01-21T09:13:08.397Z,101061.76
2019-01-21T09:16:13.444Z,101064.80
2019-01-21T09:19:28.011Z,101061.80
2019-01-21T09:22:46.401Z,101059.96
2019-01-21T09:25:48.159Z,101060.77
2019-01-21T09:28:42.721Z,101069.17
2019-01-21T09:31:52.030Z,101068.80
2019-01-21T09:34:52.333Z,101067.19
2019-01-21T09:37:53.146Z,101070.16
2019-01-21T09:41:20.136Z,101079.60
2019-01-21T09:44:02.710Z,101088.95
2019-01-21T09:46:49.914Z,101082.89
2019-01-21T09:49:18.400Z,101075.44
2019-01-21T09:52:08.152Z,101060.72
2019-01-21T09:54:38.366Z,101063.14
2019-01-21T09:57:07.306Z,101051.97
2019-01-21T09:59:35.067Z,101044.59
2019-01-21T10:02:09.287Z,101038.75
2019-01-21T10:04:46.645Z,101044.44
2019-01-21T10:07:38.811Z,101031.80
2019-01-21T10:10:33.737Z,101020.55
2019-01-21T10:13:57.376Z,101017.13
2019-01-21T10:17:01.982Z,101009.54
2019-01-21T10:19:58.356Z,101005.53
2019-01-21T10:23:28.902Z,100999.11
2019-01-21T10:26:27.830Z,101004.96
2019-01-21T10:29:39.397Z,100999.22
2019-01-21T10:32:51.386Z,101002.72
2019-01-21T10:36:03.353Z,100998.94
2019-01-21T10:39:07.446Z,100978.05
2019-01-21T10:41:49.832Z,100977.44
2019-01-21T10:44:26.221Z,100974.85
2019-01-21T10:47:13.186Z,100976.39
2019-01-21T10:50:00.172Z,100981.34
2019-01-21T10:53:12.207Z,100957.44
2019-01-21T10:56:02.386Z,100978.94
2019-01-21T10:59:10.292Z,100970.69
2019-01-21T11:02:04.698Z,100973.05
2019-01-21T11:04:57.303Z,100975.58
2019-01-21T11:08:05.751Z,100974.78
2019-01-21T11:11:02.616Z,100967.48
2019-01-21T11:14:29.772Z,100961.39
2019-01-21T11:17:38.246Z,100956.28
2019-01-21T11:20:31.791Z,100957.34
2019-01-21T11:23:11.611Z,100943.20
2019-01-21T11:26:31.929Z,100947.33
2019-01-21T11:29:50.102Z,100945.61
2019-01-21T11:32:59.321Z,100943.55
2019-01-21T11:35:48.836Z,100947.08
2019-01-21T11:38:47.686Z,100938.94
2019-01-21T11:41:28.127Z,100928.50
2019-01-21T11:44:45.387Z,100928.34
2019-01-21T11:47:21.466Z,100927.83
2019-01-21T11:50:11.232Z,100922.95
2019-01-21T11:53:00.841Z,100924.53
2019-01-21T11:55:46.121Z,100920.34
2019-01-21T11:58:54.322Z,100909.97
2019-01-21T12:02:05.132Z,100914.75
2019-01-21T12:05:23.311Z,100895.23
2019-01-21T12:08:47.846Z,100906.84
2019-01-21T12:11:42.241Z,100906.94
2019-01-21T12:15:00.617Z,100911.53
2019-01-21T12:17:50.067Z,100900.99
2019-01-21T12:21:01.832Z,100889.45
2019-01-21T12:24:06.556Z,100906.84
2019-01-21T12:27:11.877Z,100895.14
2019-01-21T12:30:15.088Z,100886.09
2019-01-21T12:33:11.776Z,100885.80
2019-01-21T12:36:09.966Z,100871.97
2019-01-21T12:39:14.472Z,100866.89
2019-01-21T12:42:12.806Z,100878.52
2019-01-21T12:45:29.427Z,100885.17
2019-01-21T12:48:34.287Z,100863.08
2019-01-21T12:51:47.982Z,100848.22
2019-01-21T12:54:58.901Z,100835.45
2019-01-21T12:58:09.217Z,100842.66
2019-01-21T13:01:16.526Z,100823.87
2019-01-21T13:04:11.316Z,100834.08
2019-01-21T13:07:20.961Z,100829.61
2019-01-21T13:10:32.801Z,100829.48
2019-01-21T13:13:51.325Z,100818.43
2019-01-21T13:16:42.625Z,100808.33
2019-01-21T13:19:43.485Z,100802.32
2019-01-21T13:23:03.418Z,100806.47
2019-01-21T13:25:58.989Z,100808.72
2019-01-21T13:28:57.995Z,100814.90
2019-01-21T13:32:03.108Z,100805.43
2019-01-21T13:35:01.130Z,100808.16
2019-01-21T13:38:28.408Z,100803.89
2019-01-21T13:41:19.878Z,100808.61
2019-01-21T13:44:26.175Z,100820.77
2019-01-21T13:47:43.656Z,100810.95
2019-01-21T13:50:45.975Z,100808.86
2019-01-21T13:53:49.955Z,100799.45
2019-01-21T13:56:46.796Z,100797.56
2019-01-21T13:59:36.971Z,100790.70
2019-01-21T14:02:55.570Z,100799.59
2019-01-21T14:06:06.324Z,100806.31
2019-01-21T14:09:11.185Z,100796.45
2019-01-21T14:11:59.237Z,100806.70
2019-01-21T14:14:37.332Z,100811.98
2019-01-21T14:17:41.452Z,100809.85
2019-01-21T14:20:20.203Z,100799.91
2019-01-21T14:23:17.185Z,100798.42
2019-01-21T14:26:44.490Z,100792.34
2019-01-21T14:29:37.640Z,100782.45
2019-01-21T14:32:51.925Z,100777.08
2019-01-21T14:36:14.797Z,100770.78
2019-01-21T14:39:14.520Z,100773.74
2019-01-21T14:42:32.319Z,100778.02
2019-01-21T14:45:34.551Z,100778.60
2019-01-21T14:48:39.521Z,100780.02
2019-01-21T14:51:38.456Z,100776.44
2019-01-21T14:54:40.689Z,100774.08
2019-01-21T14:57:49.745Z,100774.17
2019-01-21T15:00:45.734Z,100764.93
2019-01-21T15:03:54.955Z,100767.52
2019-01-21T15:06:57.691Z,100759.21
2019-01-21T15:10:17.259Z,100759.57
2019-01-21T15:13:16.445Z,100757.47
2019-01-21T15:16:27.548Z,100759.39
2019-01-21T15:19:06.021Z,100760.48
2019-01-21T15:21:56.599Z,100763.94
2019-01-21T15:25:03.169Z,100767.33
2019-01-21T15:28:23.751Z,100771.08
2019-01-21T15:31:38.783Z,100763.75
2019-01-21T15:34:48.385Z,100765.27
2019-01-21T15:37:41.450Z,100763.13
2019-01-21T15:41:02.820Z,100765.70
2019-01-21T15:44:07.838Z,100756.00
2019-01-21T15:47:25.612Z,100750.88
2019-01-21T15:50:26.502Z,100752.02
2019-01-21T15:53:14.651Z,100743.59
2019-01-21T15:56:15.431Z,100746.89
2019-01-21T15:59:12.158Z,100752.30
2019-01-21T16:02:11.855Z,100761.03
2019-01-21T16:04:59.142Z,100760.46
2019-01-21T16:08:08.690Z,100764.74
2019-01-21T16:11:22.868Z,100774.97
2019-01-21T16:14:00.965Z,100769.94
2019-01-21T16:16:52.878Z,100773.88
2019-01-21T16:19:43.294Z,100765.54
2019-01-21T16:22:48.515Z,100766.33
2019-01-21T16:26:00.442Z,100756.56
2019-01-21T16:29:25.010Z,100753.90
2019-01-21T16:32:06.079Z,100759.97
2019-01-21T16:34:59.499Z,100757.69
2019-01-21T16:38:16.272Z,100760.71
2019-01-21T16:41:07.890Z,100763.40
2019-01-21T16:43:35.454Z,100753.40
2019-01-21T16:46:02.990Z,100758.17
2019-01-21T16:48:30.476Z,100758.39
2019-01-21T16:50:57.885Z,100763.64
2019-01-21T16:53:25.344Z,100761.51
2019-01-21T16:55:52.780Z,100761.36
2019-01-21T16:58:20.256Z,100755.89
2019-01-21T17:00:47.677Z,100755.36
2019-01-21T17:03:15.155Z,100749.16
2019-01-21T17:05:42.885Z,100743.16
2019-01-21T17:08:10.352Z,100751.20
2019-01-21T17:10:39.349Z,100744.56
2019-01-21T17:13:06.880Z,100741.66
2019-01-21T17:15:34.341Z,100736.23
2019-01-21T17:18:01.758Z,100740.75
2019-01-21T17:20:29.241Z,100737.06
2019-01-21T17:22:56.620Z,100737.12
2019-01-21T17:25:24.100Z,100732.94
2019-01-21T17:27:51.490Z,100728.56
2019-01-21T17:30:19.017Z,100718.03
2019-01-21T17:32:46.451Z,100718.05
2019-01-21T17:35:14.198Z,100723.77
2019-01-21T17:37:41.640Z,100723.47
2019-01-21T17:40:11.215Z,100720.72
2019-01-21T17:42:38.716Z,100721.87
2019-01-21T17:45:09.756Z,100719.69
2019-01-21T17:47:37.541Z,100715.33
2019-01-21T17:50:06.240Z,100712.13
2019-01-21T17:52:33.686Z,100708.36
2019-01-21T17:55:01.131Z,100710.63
2019-01-21T17:57:28.591Z,100706.81
2019-01-21T17:59:56.066Z,100712.66
2019-01-21T18:02:23.615Z,100704.12
2019-01-21T18:04:51.181Z,100695.97
2019-01-21T18:07:18.745Z,100693.00
2019-01-21T18:09:47.515Z,100692.06
2019-01-21T18:12:14.975Z,100694.36
2019-01-21T18:14:42.966Z,100693.59
2019-01-21T18:17:10.515Z,100694.97
2019-01-21T18:19:38.135Z,100694.48
2019-01-21T18:22:05.777Z,100687.92
2019-01-21T18:24:33.740Z,100686.45
2019-01-21T18:27:01.358Z,100684.14
2019-01-21T18:29:28.936Z,100682.53
2019-01-21T18:31:56.501Z,100677.87
2019-01-21T18:34:24.081Z,100674.27
2019-01-21T18:36:51.866Z,100666.77
2019-01-21T18:39:19.440Z,100671.91
2019-01-21T18:41:47.095Z,100664.59
2019-01-21T18:44:14.912Z,100665.22
2019-01-21T18:46:42.906Z,100661.41
2019-01-21T18:49:10.620Z,100664.23
2019-01-21T18:51:38.446Z,100664.55
2019-01-21T18:54:06.085Z,100662.74
2019-01-21T18:56:33.762Z,100658.51
2019-01-21T18:59:01.510Z,100659.08
2019-01-21T19:01:30.415Z,100664.17
2019-01-21T19:03:58.200Z,100664.03
2019-01-21T19:06:26.111Z,100664.98
2019-01-21T19:08:59.995Z,100665.30
2019-01-21T19:11:27.980Z,100668.16
2019-01-21T19:13:55.966Z,100664.37
2019-01-21T19:16:23.836Z,100663.64
2019-01-21T19:18:51.586Z,100672.09
2019-01-21T19:21:19.536Z,100668.42
2019-01-21T19:23:47.303Z,100669.59
2019-01-21T19:26:15.300Z,100667.81
2019-01-21T19:28:42.991Z,100669.92
2019-01-21T19:31:11.006Z,100666.23
2019-01-21T19:33:38.785Z,100659.25
2019-01-21T19:36:06.641Z,100661.36
2019-01-21T19:38:34.418Z,100659.55
2019-01-21T19:41:02.211Z,100649.27
2019-01-21T19:43:30.110Z,100655.16
2019-01-21T19:45:58.165Z,100656.81
2019-01-21T19:48:26.136Z,100658.12
2019-01-21T19:51:00.247Z,100649.04
2019-01-21T19:53:40.807Z,100641.06
2019-01-21T19:56:14.443Z,100640.19
2019-01-21T19:58:43.869Z,100644.03
2019-01-21T20:01:11.846Z,100643.89
2019-01-21T20:03:39.790Z,100644.78
2019-01-21T20:06:10.160Z,100640.95
2019-01-21T20:08:42.380Z,100641.84
2019-01-21T20:11:10.878Z,100644.64
2019-01-21T20:13:40.244Z,100643.91
2019-01-21T20:16:14.354Z,100644.66
2019-01-21T20:18:42.465Z,100632.91
2019-01-21T20:21:12.969Z,100637.98
2019-01-21T20:23:41.190Z,100631.17
2019-01-21T20:26:12.311Z,100631.62
2019-01-21T20:28:43.324Z,100629.00
2019-01-21T20:31:11.425Z,100628.31
2019-01-21T20:33:39.185Z,100623.45
2019-01-21T20:36:10.545Z,100625.34
2019-01-21T20:38:38.824Z,100632.69
2019-01-21T20:41:09.650Z,100631.20
2019-01-21T20:43:41.980Z,100627.19
2019-01-21T20:46:25.944Z,100628.74
2019-01-21T20:49:02.398Z,100622.92
2019-01-21T20:51:39.859Z,100628.67
2019-01-21T20:54:22.067Z,100628.85
2019-01-21T20:56:56.720Z,100621.02
2019-01-21T20:59:40.119Z,100619.13
2019-01-21T21:02:10.344Z,100615.48
2019-01-21T21:04:38.130Z,100620.83
2019-01-21T21:07:15.589Z,100618.72
2019-01-21T21:09:46.696Z,100613.95
2019-01-21T21:12:17.847Z,100612.21
2019-01-21T21:14:45.302Z,100607.37
2019-01-21T21:17:13.302Z,100612.88
2019-01-21T21:20:13.384Z,100619.42
2019-01-21T21:22:12.365Z,100612.48
2019-01-21T21:24:40.010Z,100615.59
2019-01-21T21:27:07.586Z,100615.83
2019-01-21T21:29:35.115Z,100618.22
2019-01-21T21:32:02.727Z,100618.08
2019-01-21T21:34:30.330Z,100609.63
2019-01-21T21:36:57.895Z,100611.06
2019-01-21T21:39:25.416Z,100611.36
2019-01-21T21:41:52.980Z,100613.72
2019-01-21T21:44:21.286Z,100609.41
2019-01-21T21:46:49.036Z,100600.83
2019-01-21T21:49:16.579Z,100600.75
2019-01-21T21:51:44.111Z,100589.79
2019-01-21T21:54:11.631Z,100591.47
2019-01-21T21:56:39.142Z,100592.01
2019-01-21T21:59:06.696Z,100589.79
2019-01-21T22:01:34.176Z,100592.68
2019-01-21T22:04:01.765Z,100587.75
2019-01-21T22:06:29.265Z,100579.36
2019-01-21T22:08:56.771Z,100582.31
2019-01-21T22:11:24.251Z,100584.62
2019-01-21T22:13:51.745Z,100584.98
2019-01-21T22:16:19.195Z,100582.52
2019-01-21T22:18:46.785Z,100575.80
2019-01-21T22:21:14.325Z,100575.27
2019-01-21T22:23:47.906Z,100568.98
2019-01-21T22:26:17.445Z,100566.54
2019-01-21T22:28:45.027Z,100568.45
2019-01-21T22:31:12.437Z,100561.86
2019-01-21T22:33:39.915Z,100549.02
2019-01-21T22:36:07.305Z,100553.43
2019-01-21T22:38:34.816Z,100557.53
2019-01-21T22:41:08.010Z,100554.41
2019-01-21T22:43:41.255Z,100558.59
2019-01-21T22:46:08.685Z,100560.34
2019-01-21T22:48:36.180Z,100551.16
2019-01-21T22:51:03.695Z,100548.17
2019-01-21T22:53:31.155Z,100545.23
2019-01-21T22:55:58.558Z,100548.84
2019-01-21T22:58:26.035Z,100538.48
2019-01-21T23:01:17.430Z,100533.73
2019-01-21T23:03:50.931Z,100532.28
2019-01-21T23:06:18.458Z,100537.78
2019-01-21T23:08:46.020Z,100540.80
2019-01-21T23:11:13.426Z,100533.69
2019-01-21T23:13:40.862Z,100536.25
2019-01-21T23:16:08.275Z,100537.50
2019-01-21T23:18:35.962Z,100539.69
2019-01-21T23:21:03.515Z,100531.11
2019-01-21T23:23:30.936Z,100524.53
2019-01-21T23:25:59.465Z,100518.79
2019-01-21T23:28:26.891Z,100521.65
2019-01-21T23:30:54.388Z,100515.23
2019-01-21T23:33:21.990Z,100509.44
2019-01-21T23:35:49.445Z,100508.09
2019-01-21T23:38:16.980Z,100502.90
2019-01-21T23:40:44.450Z,100506.44
2019-01-21T23:43:11.870Z,100506.03
2019-01-21T23:45:39.321Z,100503.62
2019-01-21T23:48:07.145Z,100492.31
2019-01-21T23:50:34.620Z,100495.16
2019-01-21T23:53:02.087Z,100487.80
2019-01-21T23:55:29.526Z,100489.02
2019-01-21T23:57:56.935Z,100485.03
